Time;durP1;ratioP1;P1;durP2;ratioP2;P2;SDS_P1;SDS_P2;PMS_P1;PMS_P2;Temp;Humidity;BMP_temperature;BMP_pressure;BME280_temperature;BME280_humidity;BME280_pressure;Samples;Min_cycle;Max_cycle;Signal;HPM_P1;HPM_P2
2022/12/28 00:00:24;;;;;;;9.65;3.45;;;5.20;99.90;;;;;;5012682;28;20057;-65
2022/12/28 00:02:49;;;;;;;9.52;2.63;;;5.20;99.90;;;;;;5008956;28;20471;-65
2022/12/28 00:05:16;;;;;;;8.38;2.72;;;5.20;99.90;;;;;;5009004;28;20042;-65
2022/12/28 00:07:43;;;;;;;6.30;2.92;;;5.20;99.90;;;;;;5008604;28;20099;-65
2022/12/28 00:10:09;;;;;;;13.77;2.88;;;5.10;99.90;;;;;;5008988;28;20060;-65
2022/12/28 00:12:34;;;;;;;8.45;3.28;;;5.10;99.90;;;;;;5009020;28;20637;-65
2022/12/28 00:15:00;;;;;;;6.22;2.58;;;5.10;99.90;;;;;;5008078;28;20030;-65
2022/12/28 00:17:26;;;;;;;5.65;2.90;;;5.10;99.90;;;;;;5008989;28;20048;-65
2022/12/28 00:19:52;;;;;;;5.85;2.55;;;5.10;99.90;;;;;;5012032;28;20041;-65
2022/12/28 00:22:17;;;;;;;10.48;2.70;;;5.10;99.90;;;;;;5016119;28;20042;-65
2022/12/28 00:24:43;;;;;;;9.23;2.55;;;5.10;99.90;;;;;;5025389;28;20046;-65
2022/12/28 00:27:08;;;;;;;9.32;3.03;;;5.10;99.90;;;;;;5027784;28;20703;-65
2022/12/28 00:29:34;;;;;;;8.32;3.10;;;5.10;99.90;;;;;;5020446;28;20041;-65
2022/12/28 00:32:00;;;;;;;13.90;2.97;;;5.10;99.90;;;;;;5007537;28;20048;-65
2022/12/28 00:34:26;;;;;;;9.32;3.00;;;5.10;99.90;;;;;;5021781;28;20502;-65
2022/12/28 00:36:52;;;;;;;5.50;2.60;;;5.20;99.90;;;;;;5028148;28;20060;-65
2022/12/28 00:39:18;;;;;;;;;;;5.10;99.90;;;;;;5028027;28;20364;-65
2022/12/28 00:41:44;;;;;;;8.40;3.20;;;5.10;99.90;;;;;;5007218;28;19925;-65
2022/12/28 00:44:10;;;;;;;5.53;2.97;;;5.10;99.90;;;;;;5017391;28;20045;-65
2022/12/28 00:46:35;;;;;;;7.35;2.55;;;5.10;99.90;;;;;;5015844;28;20050;-65
2022/12/28 00:49:01;;;;;;;8.52;2.72;;;5.10;99.90;;;;;;5008282;28;20049;-65
2022/12/28 00:51:27;;;;;;;7.05;3.65;;;5.30;99.90;;;;;;5022579;28;20049;-65
2022/12/28 00:53:52;;;;;;;6.97;2.70;;;5.10;99.90;;;;;;5009055;28;20048;-65
2022/12/28 00:56:22;;;;;;;8.25;3.15;;;5.30;99.90;;;;;;5007899;28;20052;-65
2022/12/28 00:58:48;;;;;;;5.85;2.72;;;5.10;99.90;;;;;;5008258;28;20062;-65
2022/12/28 01:01:17;;;;;;;8.38;2.95;;;5.20;99.90;;;;;;5006992;28;20372;-65
2022/12/28 01:03:43;;;;;;;6.80;2.85;;;5.20;99.90;;;;;;5009658;28;20479;-65
2022/12/28 01:06:10;;;;;;;;;;;5.20;99.90;;;;;;5017812;28;20052;-65
2022/12/28 01:08:37;;;;;;;7.63;4.15;;;5.20;99.90;;;;;;5027603;28;20402;-65
2022/12/28 01:11:21;;;;;;;9.13;3.00;;;5.10;99.90;;;;;;5027661;28;20049;-65
2022/12/28 01:13:48;;;;;;;7.82;3.08;;;5.30;99.90;;;;;;5027884;28;20058;-65
2022/12/28 01:16:19;;;;;;;8.85;3.28;;;5.20;99.90;;;;;;5026634;28;20186;-65
2022/12/28 01:18:46;;;;;;;7.53;3.38;;;5.20;99.90;;;;;;5028133;28;20056;-65
2022/12/28 01:21:17;;;;;;;7.75;3.05;;;5.20;99.90;;;;;;5027228;28;20040;-65
2022/12/28 01:23:43;;;;;;;11.38;3.55;;;5.30;99.90;;;;;;5027905;28;20118;-65
2022/12/28 01:26:10;;;;;;;10.40;3.30;;;5.30;99.90;;;;;;5011703;28;20118;-66
2022/12/28 01:28:36;;;;;;;14.27;3.75;;;5.30;99.90;;;;;;5001686;28;20382;-65
2022/12/28 01:31:06;;;;;;;;;;;5.30;99.90;;;;;;5008392;28;20436;-66
2022/12/28 01:33:31;;;;;;;11.35;3.47;;;5.30;99.90;;;;;;5027263;28;19923;-65
2022/12/28 01:35:57;;;;;;;9.73;3.67;;;5.50;99.90;;;;;;5027324;28;20124;-65
2022/12/28 01:38:23;;;;;;;11.65;2.95;;;5.30;99.90;;;;;;5027030;28;20046;-65
2022/12/28 01:40:49;;;;;;;9.75;3.58;;;5.40;99.90;;;;;;5027690;28;20117;-65
2022/12/28 01:43:15;;;;;;;10.57;3.47;;;5.40;99.90;;;;;;5012120;28;20053;-65
2022/12/28 01:45:46;;;;;;;7.70;3.75;;;5.40;99.90;;;;;;5007227;28;20052;-65
2022/12/28 01:48:23;;;;;;;7.43;3.40;;;5.40;99.90;;;;;;5007189;28;20042;-65
2022/12/28 01:50:50;;;;;;;7.82;3.55;;;5.40;99.90;;;;;;5007538;28;20064;-65
2022/12/28 01:53:18;;;;;;;9.20;2.90;;;5.40;99.90;;;;;;5010817;28;20042;-64
2022/12/28 01:55:46;;;;;;;7.25;3.20;;;5.40;99.90;;;;;;5016364;28;20137;-64
2022/12/28 01:58:28;;;;;;;6.68;3.10;;;5.50;99.90;;;;;;5024143;28;20501;-65
2022/12/28 02:00:54;;;;;;;7.78;3.13;;;5.50;99.90;;;;;;5027157;28;20052;-65
2022/12/28 02:03:24;;;;;;;7.45;2.45;;;5.50;99.90;;;;;;5026289;28;20057;-65
2022/12/28 02:05:55;;;;;;;9.13;3.08;;;5.50;99.90;;;;;;5027004;28;20045;-65
2022/12/28 02:08:40;;;;;;;7.90;3.53;;;5.50;99.90;;;;;;5023652;28;20487;-66
2022/12/28 02:11:08;;;;;;;7.35;3.47;;;5.50;99.90;;;;;;5006818;28;20473;-66
2022/12/28 02:13:34;;;;;;;9.88;2.78;;;5.50;99.90;;;;;;5007078;28;20042;-65
2022/12/28 02:16:00;;;;;;;8.55;3.10;;;5.60;99.90;;;;;;5009233;28;20098;-65
2022/12/28 02:18:26;;;;;;;14.10;3.30;;;5.60;99.90;;;;;;4989426;28;20187;-65
2022/12/28 02:21:14;;;;;;;9.13;4.13;;;5.60;99.90;;;;;;5008793;28;20391;-65
2022/12/28 02:23:56;;;;;;;5.80;3.10;;;5.60;99.90;;;;;;5026915;28;20096;-65
2022/12/28 02:27:03;;;;;;;7.95;3.00;;;5.60;99.90;;;;;;5026551;28;20046;-65
2022/12/28 02:29:49;;;;;;;9.77;3.40;;;5.70;99.90;;;;;;5016590;28;20650;-65
2022/12/28 02:32:54;;;;;;;8.57;3.20;;;5.70;99.90;;;;;;5006170;28;20099;-65
2022/12/28 02:35:47;;;;;;;9.52;3.33;;;5.70;99.90;;;;;;5005852;28;20050;-65
2022/12/28 02:38:24;;;;;;;7.55;2.90;;;5.70;99.90;;;;;;5006585;28;20133;-65
2022/12/28 02:41:01;;;;;;;5.75;2.53;;;5.70;99.90;;;;;;5017574;28;20044;-65
2022/12/28 02:43:27;;;;;;;;;;;5.70;99.90;;;;;;5026443;28;20188;-65
2022/12/28 02:51:52;;;;;;;8.77;3.53;;;5.70;99.90;;;;;;5018894;28;20110;-66
2022/12/28 02:57:57;;;;;;;8.70;3.65;;;5.70;99.90;;;;;;5025199;28;20498;-65
2022/12/28 03:00:37;;;;;;;10.38;3.60;;;5.70;99.90;;;;;;5024255;28;20071;-65
2022/12/28 03:03:37;;;;;;;11.25;4.45;;;5.70;99.90;;;;;;5011406;28;20057;-65
2022/12/28 03:09:26;;;;;;;11.68;4.35;;;5.70;99.90;;;;;;5025784;28;20390;-65
2022/12/28 03:12:02;;;;;;;10.02;4.03;;;5.70;99.90;;;;;;5028998;28;20398;-64
2022/12/28 03:14:44;;;;;;;11.40;4.05;;;5.70;99.90;;;;;;5026496;28;20506;-65
2022/12/28 03:31:12;;;;;;;10.48;4.05;;;5.80;99.90;;;;;;5009680;28;20069;-66
2022/12/28 03:33:44;;;;;;;11.45;4.15;;;5.80;99.90;;;;;;5030244;28;20106;-65
2022/12/28 03:36:21;;;;;;;10.10;4.03;;;5.70;99.90;;;;;;5029200;28;20095;-65
2022/12/28 03:39:25;;;;;;;11.40;3.90;;;5.60;99.90;;;;;;5015445;28;20250;-65
2022/12/28 03:44:50;;;;;;;10.00;4.20;;;5.90;99.90;;;;;;5009938;28;20098;-65
2022/12/28 03:47:17;;;;;;;12.88;4.10;;;5.90;99.90;;;;;;5008085;28;20509;-65
2022/12/28 03:49:43;;;;;;;10.38;3.53;;;5.90;99.90;;;;;;5009555;28;20521;-65
2022/12/28 03:52:10;;;;;;;9.52;3.67;;;6.00;99.90;;;;;;5010719;28;20099;-64
2022/12/28 03:54:36;;;;;;;9.65;3.90;;;5.90;99.90;;;;;;5009113;28;20057;-65
2022/12/28 03:57:02;;;;;;;9.38;4.10;;;6.00;99.90;;;;;;5009680;28;20075;-65
2022/12/28 03:59:28;;;;;;;10.75;3.38;;;5.90;99.90;;;;;;5009184;28;20062;-65
2022/12/28 04:01:53;;;;;;;6.93;3.22;;;6.00;99.90;;;;;;5008389;28;20049;-65
2022/12/28 04:04:22;;;;;;;10.80;3.92;;;6.00;99.90;;;;;;5009023;28;20042;-65
2022/12/28 04:06:47;;;;;;;12.00;3.60;;;6.00;99.90;;;;;;5019997;28;20057;-66
2022/12/28 04:09:13;;;;;;;10.45;4.20;;;6.10;99.90;;;;;;5028419;28;20033;-65
2022/12/28 04:11:39;;;;;;;12.18;3.20;;;6.00;99.90;;;;;;5027257;28;20110;-66
2022/12/28 04:14:04;;;;;;;6.82;3.40;;;6.00;99.90;;;;;;5029148;28;20056;-65
2022/12/28 04:16:30;;;;;;;11.20;3.47;;;6.00;99.90;;;;;;5023285;28;20053;-66
2022/12/28 04:18:56;;;;;;;6.93;3.40;;;6.00;99.90;;;;;;5009292;28;20050;-66
2022/12/28 04:21:22;;;;;;;7.13;3.65;;;6.20;99.90;;;;;;5010463;28;20085;-65
2022/12/28 04:23:51;;;;;;;6.35;2.65;;;6.10;99.90;;;;;;5009405;28;20060;-66
2022/12/28 04:26:17;;;;;;;6.78;3.38;;;6.10;99.90;;;;;;5008826;28;20038;-67
2022/12/28 04:28:43;;;;;;;7.45;3.22;;;6.00;99.90;;;;;;5008655;28;20038;-65
2022/12/28 04:31:11;;;;;;;10.73;4.10;;;6.00;99.90;;;;;;5009637;28;20056;-65
2022/12/28 04:33:38;;;;;;;7.82;3.80;;;6.10;99.90;;;;;;5028272;28;20260;-65
2022/12/28 04:36:13;;;;;;;8.57;3.35;;;6.10;99.90;;;;;;5028234;28;20041;-65
2022/12/28 04:38:38;;;;;;;8.07;3.60;;;6.10;99.90;;;;;;5028015;28;20050;-65
2022/12/28 04:41:07;;;;;;;9.10;3.33;;;6.10;99.90;;;;;;5008983;28;20121;-65
2022/12/28 04:43:33;;;;;;;10.27;3.40;;;6.10;99.90;;;;;;5018723;28;20089;-65
2022/12/28 04:46:04;;;;;;;9.50;3.58;;;6.20;99.90;;;;;;5028059;28;20041;-65
2022/12/28 04:48:30;;;;;;;8.48;3.70;;;6.20;99.90;;;;;;5027726;28;20042;-65
2022/12/28 04:50:56;;;;;;;6.40;3.33;;;6.20;99.90;;;;;;5018567;28;20482;-65
2022/12/28 04:53:23;;;;;;;8.85;3.75;;;6.20;99.90;;;;;;5013376;28;20512;-65
2022/12/28 04:55:48;;;;;;;8.00;3.72;;;6.20;99.90;;;;;;5028357;28;20042;-65
2022/12/28 04:58:15;;;;;;;9.00;3.70;;;6.20;99.90;;;;;;5012570;28;20106;-65
2022/12/28 05:00:43;;;;;;;;;;;6.20;99.90;;;;;;5008171;28;20505;-65
2022/12/28 05:03:08;;;;;;;7.22;3.35;;;6.20;99.90;;;;;;5008052;28;19940;-65
2022/12/28 05:05:36;;;;;;;6.38;3.72;;;6.30;99.90;;;;;;5008172;28;20037;-65
2022/12/28 05:08:01;;;;;;;6.70;2.88;;;6.30;99.90;;;;;;5007788;28;20057;-65
2022/12/28 05:10:28;;;;;;;8.80;3.83;;;6.30;99.90;;;;;;5013462;28;20375;-65
2022/12/28 05:12:55;;;;;;;7.35;3.38;;;6.30;99.90;;;;;;5008001;28;20042;-65
2022/12/28 05:15:23;;;;;;;7.65;3.78;;;6.40;99.90;;;;;;5023500;28;20567;-65
2022/12/28 05:17:49;;;;;;;5.57;3.03;;;6.40;99.90;;;;;;5012232;28;20041;-65
2022/12/28 05:20:16;;;;;;;11.13;3.25;;;6.40;99.90;;;;;;5008467;28;20129;-65
2022/12/28 05:22:42;;;;;;;6.60;3.72;;;6.40;99.90;;;;;;4991504;28;20140;-64
2022/12/28 05:25:08;;;;;;;6.85;3.30;;;6.40;99.90;;;;;;5025365;28;20462;-65
2022/12/28 05:27:34;;;;;;;8.23;3.30;;;6.40;99.90;;;;;;5026978;28;20049;-65
2022/12/28 05:29:59;;;;;;;7.07;3.40;;;6.50;99.90;;;;;;5027796;28;20045;-65
2022/12/28 05:32:25;;;;;;;8.70;3.35;;;6.50;99.90;;;;;;5022550;28;20046;-67
2022/12/28 05:34:50;;;;;;;8.07;3.40;;;6.50;99.90;;;;;;5008030;28;20049;-65
2022/12/28 05:37:16;;;;;;;8.00;3.28;;;6.50;99.90;;;;;;5017469;28;20045;-65
2022/12/28 05:39:42;;;;;;;8.02;3.33;;;6.60;99.90;;;;;;5003821;28;20117;-65
2022/12/28 05:42:07;;;;;;;9.68;3.17;;;6.70;99.90;;;;;;5026298;28;20046;-65
2022/12/28 05:44:33;;;;;;;9.23;3.95;;;6.70;99.90;;;;;;5009927;28;20041;-65
2022/12/28 05:46:59;;;;;;;9.60;3.40;;;6.60;99.90;;;;;;5014725;28;20063;-65
2022/12/28 05:49:24;;;;;;;8.30;3.50;;;6.70;99.90;;;;;;5015174;28;20493;-65
2022/12/28 05:51:53;;;;;;;7.35;3.22;;;6.70;99.90;;;;;;5025589;28;20761;-66
2022/12/28 05:54:18;;;;;;;7.38;3.17;;;6.80;99.90;;;;;;5016525;28;20137;-65
2022/12/28 05:56:45;;;;;;;8.98;3.60;;;6.90;99.90;;;;;;5006331;28;20042;-65
2022/12/28 05:59:12;;;;;;;7.57;3.35;;;6.80;99.90;;;;;;5016833;28;20499;-65
2022/12/28 06:01:39;;;;;;;7.60;3.10;;;6.90;99.90;;;;;;5025827;28;20697;-65
2022/12/28 06:04:13;;;;;;;7.38;3.28;;;6.90;99.90;;;;;;5019118;28;20050;-65
2022/12/28 06:06:39;;;;;;;7.57;4.15;;;6.90;99.90;;;;;;5006441;28;20038;-65
2022/12/28 06:09:04;;;;;;;8.23;3.08;;;7.00;99.90;;;;;;5007761;28;20057;-65
2022/12/28 06:11:30;;;;;;;7.97;3.53;;;7.00;99.90;;;;;;5008426;28;20079;-67
2022/12/28 06:13:57;;;;;;;;;;;7.00;99.90;;;;;;5007574;28;20383;-65
2022/12/28 06:16:29;;;;;;;5.97;3.40;;;7.00;99.90;;;;;;5006593;28;19961;-65
2022/12/28 06:18:55;;;;;;;7.45;3.67;;;7.00;99.90;;;;;;5007292;28;20046;-65
2022/12/28 06:21:22;;;;;;;;;;;7.00;99.90;;;;;;5008215;28;20114;-65
2022/12/28 06:23:47;;;;;;;7.07;3.72;;;7.10;99.90;;;;;;5008197;28;19921;-65
2022/12/28 06:26:16;;;;;;;7.13;3.92;;;7.10;99.90;;;;;;5027099;28;20048;-66
2022/12/28 06:28:42;;;;;;;6.40;3.25;;;7.10;99.90;;;;;;5026289;28;20419;-65
2022/12/28 06:31:14;;;;;;;8.13;3.67;;;7.10;99.90;;;;;;5026329;28;20385;-65
2022/12/28 06:33:40;;;;;;;8.07;3.85;;;7.10;99.90;;;;;;5021533;28;20046;-65
2022/12/28 06:36:31;;;;;;;8.05;4.28;;;7.10;99.90;;;;;;5006894;28;20071;-65
2022/12/28 06:38:58;;;;;;;7.05;3.47;;;7.10;99.90;;;;;;5012581;28;20054;-65
2022/12/28 06:41:25;;;;;;;6.95;3.28;;;7.10;99.90;;;;;;5011115;28;20379;-65
2022/12/28 06:43:51;;;;;;;6.78;3.70;;;7.20;99.90;;;;;;4992273;28;20713;-65
2022/12/28 06:46:18;;;;;;;9.75;4.25;;;7.20;99.90;;;;;;5029514;28;20102;-66
2022/12/28 06:48:44;;;;;;;9.32;3.85;;;7.20;99.90;;;;;;5029905;28;20535;-66
2022/12/28 06:51:37;;;;;;;8.23;4.10;;;7.20;99.90;;;;;;5030082;28;20120;-65
2022/12/28 06:54:03;;;;;;;6.93;3.80;;;7.30;99.90;;;;;;5021896;28;20102;-66
2022/12/28 06:56:30;;;;;;;;;;;7.30;99.90;;;;;;5020380;28;20029;-66
2022/12/28 06:58:57;;;;;;;7.97;3.88;;;7.30;99.90;;;;;;5009342;28;20054;-65
2022/12/28 07:01:27;;;;;;;7.82;4.03;;;7.30;99.90;;;;;;5012246;28;20498;-65
2022/12/28 07:03:55;;;;;;;10.85;4.53;;;7.30;99.90;;;;;;5029589;28;20041;-65
2022/12/28 07:06:24;;;;;;;8.77;4.47;;;7.30;99.90;;;;;;5029415;28;20038;-66
2022/12/28 07:08:50;;;;;;;8.70;4.57;;;7.30;99.90;;;;;;5029423;28;20060;-65
2022/12/28 07:11:20;;;;;;;10.23;5.35;;;7.30;99.90;;;;;;5029972;28;20053;-65
2022/12/28 07:13:46;;;;;;;9.40;4.75;;;7.40;99.90;;;;;;5029301;28;20049;-65
2022/12/28 07:16:17;;;;;;;10.13;5.45;;;7.40;99.90;;;;;;5022296;28;20038;-65
2022/12/28 07:18:43;;;;;;;10.18;4.40;;;7.40;99.90;;;;;;5024892;28;20071;-66
2022/12/28 07:21:20;;;;;;;9.07;4.50;;;7.40;99.90;;;;;;5015690;28;20613;-65
2022/12/28 07:23:47;;;;;;;11.50;5.20;;;7.50;99.90;;;;;;5028617;28;20042;-66
2022/12/28 07:26:15;;;;;;;11.95;5.43;;;7.50;99.90;;;;;;5029692;28;20045;-65
2022/12/28 07:28:45;;;;;;;13.00;5.47;;;7.50;99.90;;;;;;5028925;28;20117;-65
2022/12/28 07:31:15;;;;;;;11.40;5.30;;;7.50;99.90;;;;;;5028744;28;20049;-65
2022/12/28 07:33:41;;;;;;;12.15;5.90;;;7.50;99.90;;;;;;5011682;28;20045;-65
2022/12/28 07:36:07;;;;;;;;;;;7.60;99.90;;;;;;5012303;28;20038;-65
2022/12/28 07:38:34;;;;;;;10.50;5.47;;;7.60;99.90;;;;;;5029450;28;20369;-65
2022/12/28 07:41:03;;;;;;;;;;;7.60;99.90;;;;;;5015341;28;20038;-65
2022/12/28 07:43:29;;;;;;;8.35;4.93;;;7.60;99.90;;;;;;5009929;28;19922;-65
2022/12/28 07:46:05;;;;;;;11.77;5.97;;;7.60;99.90;;;;;;5018936;28;20808;-65
2022/12/28 07:48:31;;;;;;;10.15;5.30;;;7.70;99.90;;;;;;5028405;28;20056;-66
2022/12/28 07:50:57;;;;;;;11.00;5.47;;;7.70;99.90;;;;;;5028690;28;20092;-65
2022/12/28 07:53:23;;;;;;;;;;;7.70;99.90;;;;;;5029676;28;20041;-66
2022/12/28 07:55:59;;;;;;;11.55;5.65;;;7.70;99.90;;;;;;5023685;28;19966;-65
2022/12/28 07:58:25;;;;;;;11.23;5.75;;;7.70;99.90;;;;;;5009099;28;20096;-65
2022/12/28 08:00:51;;;;;;;12.85;5.65;;;7.70;99.90;;;;;;5010165;28;20065;-66
2022/12/28 08:03:17;;;;;;;14.48;6.15;;;7.80;99.90;;;;;;5010612;28;20091;-65
2022/12/28 08:05:43;;;;;;;;;;;7.80;99.90;;;;;;5024786;28;20030;-67
2022/12/28 08:08:08;;;;;;;11.48;5.72;;;7.80;99.90;;;;;;5028532;28;20406;-65
2022/12/28 08:10:34;;;;;;;10.65;5.57;;;7.80;99.90;;;;;;5029387;28;20033;-66
2022/12/28 08:13:00;;;;;;;10.95;5.60;;;7.80;99.90;;;;;;5028216;28;20559;-64
2022/12/28 08:15:26;;;;;;;12.32;6.50;;;7.80;99.90;;;;;;5027899;28;20064;-65
2022/12/28 08:17:55;;;;;;;;;;;7.80;99.90;;;;;;5028470;28;20041;-65
2022/12/28 08:20:21;;;;;;;11.35;5.70;;;7.80;99.90;;;;;;5029165;28;20337;-65
2022/12/28 08:22:47;;;;;;;11.88;5.90;;;7.80;99.90;;;;;;5027893;28;20057;-65
2022/12/28 08:25:13;;;;;;;10.65;5.35;;;7.90;99.90;;;;;;5009076;28;20474;-65
2022/12/28 08:27:39;;;;;;;10.30;4.78;;;7.90;99.90;;;;;;5026662;28;20055;-65
2022/12/28 08:30:05;;;;;;;10.05;5.28;;;7.90;99.90;;;;;;5010653;28;20050;-66
2022/12/28 08:32:31;;;;;;;10.07;4.80;;;7.90;99.90;;;;;;5008262;28;20046;-65
2022/12/28 08:35:00;;;;;;;8.77;4.28;;;7.90;99.90;;;;;;5008593;28;20057;-65
2022/12/28 08:37:25;;;;;;;11.43;4.50;;;7.90;99.90;;;;;;4990793;28;20052;-65
2022/12/28 08:39:51;;;;;;;9.50;4.32;;;7.90;99.90;;;;;;5008405;28;20049;-65
2022/12/28 08:42:17;;;;;;;9.63;4.40;;;7.90;99.90;;;;;;5008117;28;20098;-65
2022/12/28 08:44:42;;;;;;;8.73;4.25;;;7.90;99.90;;;;;;5024366;28;20045;-67
2022/12/28 08:47:08;;;;;;;8.60;4.03;;;7.90;99.90;;;;;;5019121;28;20186;-66
2022/12/28 08:49:34;;;;;;;9.02;4.10;;;7.90;99.90;;;;;;5028485;28;20045;-65
2022/12/28 08:51:59;;;;;;;8.32;4.10;;;7.90;99.90;;;;;;5026846;28;20427;-65
2022/12/28 08:54:25;;;;;;;9.30;4.60;;;7.90;99.90;;;;;;5027884;28;20033;-65
2022/12/28 08:56:52;;;;;;;7.57;4.00;;;7.90;99.90;;;;;;5027565;28;20735;-65
2022/12/28 08:59:18;;;;;;;8.35;4.30;;;7.90;99.90;;;;;;5027164;28;20486;-66
2022/12/28 09:01:46;;;;;;;9.55;4.97;;;7.90;99.90;;;;;;5024599;28;20042;-67
2022/12/28 09:04:18;;;;;;;8.27;4.35;;;8.00;99.90;;;;;;5008850;28;20053;-65
2022/12/28 09:06:47;;;;;;;9.00;4.20;;;8.00;99.90;;;;;;5007290;28;20121;-65
2022/12/28 09:09:15;;;;;;;8.57;4.22;;;8.00;99.90;;;;;;5014077;28;20050;-64
2022/12/28 09:11:41;;;;;;;9.98;4.20;;;8.00;99.90;;;;;;4991677;28;20053;-66
2022/12/28 09:14:10;;;;;;;8.98;4.60;;;8.00;99.90;;;;;;5011896;28;20042;-65
2022/12/28 09:16:37;;;;;;;8.75;3.90;;;8.10;99.90;;;;;;5022540;28;20678;-65
2022/12/28 09:19:05;;;;;;;7.43;4.25;;;8.10;99.90;;;;;;5008014;28;20447;-65
2022/12/28 09:21:34;;;;;;;10.52;3.88;;;8.10;99.90;;;;;;4994411;28;20446;-66
2022/12/28 09:24:00;;;;;;;8.82;4.03;;;8.10;99.90;;;;;;5021120;28;20041;-65
2022/12/28 09:26:28;;;;;;;7.88;4.18;;;8.10;99.90;;;;;;5010130;28;20050;-65
2022/12/28 09:28:56;;;;;;;9.75;4.15;;;8.20;99.90;;;;;;5012272;28;20060;-65
2022/12/28 09:31:25;;;;;;;8.77;4.00;;;8.20;99.90;;;;;;5012443;28;20046;-65
2022/12/28 09:34:00;;;;;;;9.00;4.22;;;8.20;99.90;;;;;;5015184;28;20049;-66
2022/12/28 09:36:40;;;;;;;8.90;3.97;;;8.20;99.90;;;;;;5017088;28;20042;-65
2022/12/28 09:39:11;;;;;;;8.48;4.10;;;8.20;99.90;;;;;;5027155;28;20109;-65
2022/12/28 09:41:48;;;;;;;11.13;3.92;;;8.20;99.90;;;;;;5023338;28;20053;-66
2022/12/28 09:44:31;;;;;;;6.68;3.47;;;8.20;99.90;;;;;;5014885;28;20428;-65
2022/12/28 09:46:56;;;;;;;8.85;4.35;;;8.30;99.90;;;;;;5014851;28;20058;-67
2022/12/28 09:49:29;;;;;;;8.75;4.35;;;8.30;99.90;;;;;;5010692;28;20034;-65
2022/12/28 09:52:07;;;;;;;10.52;3.85;;;8.20;99.90;;;;;;5017630;28;20483;-66
2022/12/28 09:54:33;;;;;;;8.27;4.22;;;8.30;99.90;;;;;;5022926;28;20045;-66
2022/12/28 09:56:59;;;;;;;10.07;4.20;;;8.30;99.90;;;;;;5022243;28;20036;-65
2022/12/28 09:59:30;;;;;;;9.30;4.20;;;8.30;99.90;;;;;;5025290;28;20144;-68
2022/12/28 10:02:00;;;;;;;10.40;4.32;;;8.30;99.90;;;;;;5020187;28;20069;-65
2022/12/28 10:04:26;;;;;;;9.63;4.15;;;8.30;99.90;;;;;;5020514;28;20486;-66
2022/12/28 10:06:52;;;;;;;8.48;4.22;;;8.30;99.90;;;;;;5021868;28;20128;-67
2022/12/28 10:09:30;;;;;;;8.50;3.97;;;8.40;99.90;;;;;;5023189;28;20068;-66
2022/12/28 10:12:00;;;;;;;7.63;3.97;;;8.30;99.90;;;;;;5006037;28;20038;-66
2022/12/28 10:14:33;;;;;;;7.47;3.85;;;8.30;99.90;;;;;;5007646;28;20052;-66
2022/12/28 10:16:59;;;;;;;8.95;4.55;;;8.40;99.90;;;;;;5013259;28;20078;-65
2022/12/28 10:19:27;;;;;;;8.30;4.20;;;8.40;99.90;;;;;;5014388;28;20042;-66
2022/12/28 10:22:04;;;;;;;7.32;3.50;;;8.40;99.90;;;;;;5010924;28;20073;-68
2022/12/28 10:24:31;;;;;;;7.68;3.63;;;8.40;99.90;;;;;;5026888;28;20120;-66
2022/12/28 10:26:58;;;;;;;7.55;3.67;;;8.40;99.90;;;;;;5025433;28;20517;-66
2022/12/28 10:29:25;;;;;;;7.90;3.50;;;8.40;99.90;;;;;;5023962;28;20094;-66
2022/12/28 10:32:05;;;;;;;8.15;3.53;;;8.40;99.90;;;;;;5049010;28;20054;-65
2022/12/28 10:34:33;;;;;;;7.40;3.10;;;8.40;99.90;;;;;;5019734;28;20102;-66
2022/12/28 10:37:12;;;;;;;6.82;3.15;;;8.40;99.90;;;;;;5025141;28;20043;-66
2022/12/28 10:39:38;;;;;;;7.80;3.63;;;8.50;99.90;;;;;;5025006;28;20045;-65
2022/12/28 10:42:04;;;;;;;7.43;3.35;;;8.50;99.90;;;;;;5021195;28;20045;-65
2022/12/28 10:44:33;;;;;;;7.10;3.33;;;8.50;99.90;;;;;;5020352;28;20045;-65
2022/12/28 10:47:04;;;;;;;6.65;3.53;;;8.50;99.90;;;;;;5008746;28;20037;-66
2022/12/28 10:49:35;;;;;;;7.75;3.30;;;8.50;99.90;;;;;;5007325;28;20041;-66
2022/12/28 10:52:17;;;;;;;7.07;2.90;;;8.50;99.90;;;;;;5016595;28;20086;-65
2022/12/28 10:54:42;;;;;;;7.75;3.10;;;8.50;99.90;;;;;;5020655;28;20045;-66
2022/12/28 10:57:20;;;;;;;5.93;2.92;;;8.50;99.90;;;;;;5013473;28;20498;-65
2022/12/28 10:59:46;;;;;;;6.57;3.25;;;8.60;99.90;;;;;;5026443;28;20371;-65
2022/12/28 11:02:29;;;;;;;8.63;3.25;;;8.50;99.90;;;;;;5024874;28;20049;-65
2022/12/28 11:05:00;;;;;;;5.80;3.10;;;8.60;99.90;;;;;;5020946;28;20695;-66
2022/12/28 11:07:30;;;;;;;4.90;2.67;;;8.50;99.90;;;;;;5024234;28;20041;-65
2022/12/28 11:10:13;;;;;;;5.72;2.88;;;8.50;99.90;;;;;;5026527;28;20129;-65
2022/12/28 11:12:49;;;;;;;4.43;2.30;;;8.60;99.90;;;;;;5026078;28;20124;-64
2022/12/28 11:15:18;;;;;;;4.23;2.47;;;8.60;99.90;;;;;;5007615;28;20144;-66
2022/12/28 11:17:49;;;;;;;3.70;2.00;;;8.50;99.90;;;;;;5025718;28;20045;-65
2022/12/28 11:20:21;;;;;;;8.38;2.83;;;8.60;99.90;;;;;;5026104;28;20114;-65
2022/12/28 11:22:47;;;;;;;6.72;2.53;;;8.50;99.90;;;;;;5021552;28;20045;-65
2022/12/28 11:25:16;;;;;;;5.28;2.40;;;8.50;99.90;;;;;;5008179;28;20046;-67
2022/12/28 11:27:43;;;;;;;5.38;2.55;;;8.80;99.90;;;;;;5005437;28;20038;-65
2022/12/28 11:30:17;;;;;;;6.32;3.00;;;8.60;99.90;;;;;;5018559;28;20049;-66
2022/12/28 11:32:56;;;;;;;5.07;2.17;;;8.50;99.90;;;;;;5028921;28;20048;-65
2022/12/28 11:35:27;;;;;;;6.53;2.88;;;8.60;99.90;;;;;;5013075;28;20038;-66
2022/12/28 11:37:58;;;;;;;5.20;2.90;;;8.60;99.90;;;;;;5016032;28;20049;-65
2022/12/28 11:40:42;;;;;;;5.90;2.20;;;8.60;99.90;;;;;;5024120;28;20048;-66
2022/12/28 11:43:30;;;;;;;5.10;2.38;;;8.60;99.90;;;;;;5028630;28;20128;-66
2022/12/28 11:46:04;;;;;;;6.03;2.38;;;8.60;99.90;;;;;;5024330;28;20112;-65
2022/12/28 11:48:42;;;;;;;6.28;2.15;;;8.60;99.90;;;;;;5028761;28;20045;-66
2022/12/28 11:51:19;;;;;;;5.28;2.30;;;8.70;99.90;;;;;;4997956;28;20387;-65
2022/12/28 11:53:45;;;;;;;3.47;2.22;;;8.70;99.90;;;;;;5023284;28;20478;-65
2022/12/28 11:56:19;;;;;;;4.40;2.65;;;8.70;99.90;;;;;;5023640;28;20107;-65
2022/12/28 11:59:18;;;;;;;3.92;2.22;;;8.70;99.90;;;;;;5027946;28;20057;-65
2022/12/28 12:01:45;;;;;;;4.32;2.22;;;8.70;99.90;;;;;;5008908;28;20037;-66
2022/12/28 12:04:34;;;;;;;3.90;2.00;;;8.70;99.90;;;;;;5010489;28;20520;-65
2022/12/28 12:07:00;;;;;;;4.05;2.22;;;8.70;99.90;;;;;;5026486;28;20133;-66
2022/12/28 12:09:39;;;;;;;6.68;2.30;;;8.70;99.90;;;;;;5010352;28;20073;-65
2022/12/28 12:12:14;;;;;;;3.83;2.50;;;8.60;99.90;;;;;;5009344;28;20439;-65
2022/12/28 12:15:06;;;;;;;3.58;2.10;;;8.70;99.90;;;;;;5026589;28;20049;-65
2022/12/28 12:17:39;;;;;;;4.28;2.10;;;8.70;99.90;;;;;;5030890;28;20049;-65
2022/12/28 12:20:16;;;;;;;5.00;2.30;;;8.60;99.90;;;;;;5010754;28;20045;-67
2022/12/28 12:22:54;;;;;;;3.50;1.73;;;8.60;99.90;;;;;;5012938;28;20053;-67
2022/12/28 12:25:39;;;;;;;3.85;2.20;;;8.60;99.90;;;;;;5021434;28;20091;-65
2022/12/28 12:28:26;;;;;;;4.00;2.13;;;8.60;99.90;;;;;;4994819;28;20433;-68
2022/12/28 12:30:53;;;;;;;3.85;2.10;;;8.60;99.90;;;;;;5016197;28;20125;-66
2022/12/28 12:33:25;;;;;;;7.07;2.22;;;8.60;99.90;;;;;;5014279;28;20042;-65
2022/12/28 12:36:46;;;;;;;4.53;1.95;;;8.60;99.90;;;;;;5007626;28;20662;-65
2022/12/28 12:39:24;;;;;;;4.50;2.20;;;8.60;99.90;;;;;;5063189;28;20052;-65
2022/12/28 12:42:21;;;;;;;3.88;2.20;;;8.60;99.90;;;;;;5028562;28;20192;-65
2022/12/28 12:45:16;;;;;;;3.47;2.00;;;8.60;99.90;;;;;;5028368;28;20067;-65
2022/12/28 12:48:03;;;;;;;4.70;1.80;;;8.50;99.90;;;;;;5041837;28;20474;-66
2022/12/28 12:50:35;;;;;;;;;;;8.60;99.90;;;;;;5025497;28;20380;-66
2022/12/28 12:53:19;;;;;;;4.63;2.10;;;8.60;99.90;;;;;;5025137;28;19956;-66
2022/12/28 12:56:09;;;;;;;3.50;1.88;;;8.60;99.90;;;;;;5025618;28;20069;-66
2022/12/28 12:59:08;;;;;;;2.83;1.90;;;8.60;99.90;;;;;;5022316;28;20497;-66
2022/12/28 13:01:57;;;;;;;3.30;1.95;;;8.60;99.90;;;;;;5026294;28;20053;-66
2022/12/28 13:04:26;;;;;;;3.78;2.08;;;8.60;99.90;;;;;;5009928;28;20057;-66
2022/12/28 13:06:56;;;;;;;2.42;1.60;;;8.60;99.90;;;;;;5027189;28;20125;-66
2022/12/28 13:09:25;;;;;;;5.47;1.85;;;8.60;99.90;;;;;;5017422;28;20042;-66
2022/12/28 13:11:51;;;;;;;1.80;1.45;;;8.60;99.90;;;;;;5020707;28;20060;-67
2022/12/28 13:14:20;;;;;;;;;;;8.60;99.90;;;;;;5016033;28;20046;-66
2022/12/28 13:16:57;;;;;;;2.03;1.50;;;8.60;99.90;;;;;;5013231;28;19922;-66
2022/12/28 13:19:28;;;;;;;2.33;1.50;;;8.60;99.90;;;;;;5024906;28;20404;-66
2022/12/28 13:21:57;;;;;;;1.42;1.20;;;8.60;99.90;;;;;;5025015;28;20106;-66
2022/12/28 13:24:26;;;;;;;3.17;1.52;;;8.60;99.90;;;;;;5013247;28;20048;-67
2022/12/28 13:26:54;;;;;;;9.65;1.52;;;8.70;99.90;;;;;;5027078;28;20163;-66
2022/12/28 13:29:23;;;;;;;1.92;1.45;;;8.60;99.90;;;;;;5008689;28;20068;-65
2022/12/28 13:31:51;;;;;;;2.03;1.30;;;8.70;99.90;;;;;;5022171;28;20463;-65
2022/12/28 13:34:29;;;;;;;2.22;1.27;;;8.60;99.90;;;;;;5015317;28;20128;-67
2022/12/28 13:37:15;;;;;;;2.63;1.52;;;8.70;99.90;;;;;;5021151;28;20034;-67
2022/12/28 13:39:41;;;;;;;1.73;1.00;;;8.60;99.90;;;;;;5005353;28;20125;-67
2022/12/28 13:42:18;;;;;;;1.77;1.27;;;8.60;99.90;;;;;;5019587;28;20451;-67
2022/12/28 13:44:58;;;;;;;1.75;1.48;;;8.60;99.90;;;;;;5023436;28;20041;-67